Terminal Aerodrome Forecast
Issued by NWS Charleston, WV

Current Version | Previous Version | Graphics & Text | Print | Product List | Glossary On
Versions: 1 2 3 4 5 6 7 8 9 10 11 12 13 14 15 16 17 18 19 20 21
622
FTUS41 KRLX 022332
TAFBKW
TAF
KBKW 022332Z 0300/0324 16018G30KT P6SM OVC015
     FM031000 17018G30KT 6SM -SHRA OVC022
     FM031200 17016G29KT 3SM SHRA VCTS OVC015CB
     FM031600 24012G22KT 5SM -SHRA BKN011
     FM032200 24011G19KT 5SM BR SCT014=

USA.gov is the U.S. government's official web portal to all federal, state and local government web resources and services.